Time;durP1;ratioP1;P1;durP2;ratioP2;P2;SDS_P1;SDS_P2;PMS_P1;PMS_P2;Temp;Humidity;BMP_temperature;BMP_pressure;BME280_temperature;BME280_humidity;BME280_pressure;Samples;Min_cycle;Max_cycle;Signal;HPM_P1;HPM_P2
2022/12/10 00:00:25;;;;;;;;;;;;;;;;;;1046115;28;2384;-57
2022/12/10 00:01:17;;;;;;;;;;;;;;;;;;1048413;28;2049;-56
2022/12/10 00:01:48;;;;;;;;;;;;;;;;;;1046491;28;1802;-56
2022/12/10 00:02:32;;;;;;;;;;;;;;;;;;1045170;28;2636;-53
2022/12/10 00:03:09;;;;;;;;;;;;;;;;;;1046864;28;2452;-55
2022/12/10 00:03:46;;;;;;;;;;;;;;;;;;1047627;28;1682;-57
2022/12/10 00:04:17;;;;;;;;;;;;;;;;;;1046528;28;2847;-55
2022/12/10 00:04:47;;;;;;;;;;;;;;;;;;1047190;28;1751;-54
2022/12/10 00:05:17;;;;;;;;;;;;;;;;;;1047387;28;1667;-55
2022/12/10 00:05:48;;;;;;;;;;;;;;;;;;1047675;28;1583;-56
2022/12/10 00:06:20;;;;;;;;;;;;;;;;;;1045845;28;2329;-56
2022/12/10 00:06:50;;;;;;;;;;;;;;;;;;1045926;28;2685;-55
2022/12/10 00:07:20;;;;;;;;;;;;;;;;;;1044339;28;2982;-57
2022/12/10 00:07:50;;;;;;;;;;;;;;;;;;1048659;28;2255;-55
2022/12/10 00:08:21;;;;;;;;;;;;;;;;;;1047779;28;1696;-57
2022/12/10 00:08:51;;;;;;;;;;;;;;;;;;1047255;28;1447;-57
2022/12/10 00:09:21;;;;;;;;;;;;;;;;;;1046532;28;2087;-56
2022/12/10 00:09:52;;;;;;;;;;;;;;;;;;1047467;28;1683;-55
2022/12/10 00:10:22;;;;;;;;;;;;;;;;;;1047695;28;2197;-56
2022/12/10 00:10:52;;;;;;;;;;;;;;;;;;1047503;28;1816;-56
2022/12/10 00:11:23;;;;;;;;;;;;;;;;;;1046464;28;2304;-56
2022/12/10 00:11:53;;;;;;;;;;;;;;;;;;1046996;28;2133;-56
2022/12/10 00:12:23;;;;;;;;;;;;;;;;;;1046327;28;2046;-56
2022/12/10 00:12:53;;;;;;;;;;;;;;;;;;1045715;28;2673;-55
2022/12/10 00:13:24;;;;;;;;;;;;;;;;;;1047023;28;2422;-54
2022/12/10 00:13:54;;;;;;;;;;;;;;;;;;1044845;28;2433;-55
2022/12/10 00:14:24;;;;;;;;;;;;;;;;;;1046827;28;2212;-56
2022/12/10 00:14:54;;;;;;;;;;;;;;;;;;1045276;28;2435;-56
2022/12/10 00:15:25;;;;;;;;;;;;;;;;;;1046186;28;1991;-57
2022/12/10 00:15:55;;;;;;;;;;;;;;;;;;1046337;28;2433;-56
2022/12/10 00:16:26;;;;;;;;;;;;;;;;;;1046479;28;2586;-57
2022/12/10 00:16:56;;;;;;;;;;;;;;;;;;1044461;28;2309;-57
2022/12/10 00:17:27;;;;;;;;;;;;;;;;;;1045791;28;2421;-55
2022/12/10 00:17:57;;;;;;;;;;;;;;;;;;1045609;28;1669;-56
2022/12/10 00:18:27;;;;;;;;;;;;;;;;;;1052048;28;1702;-57
2022/12/10 00:18:57;;;;;;;;;;;;;;;;;;1047267;28;2140;-55
2022/12/10 00:19:28;;;;;;;;;;;;;;;;;;1044179;28;2807;-56
2022/12/10 00:19:58;;;;;;;;;;;;;;;;;;1046669;28;2055;-58
2022/12/10 00:20:28;;;;;;;;;;;;;;;;;;1047214;28;2420;-58
2022/12/10 00:21:01;;;;;;;;;;;;;;;;;;1047057;28;2000;-54
2022/12/10 00:21:33;;;;;;;;;;;;;;;;;;1043209;28;2312;-56
2022/12/10 00:22:03;;;;;;;;;;;;;;;;;;1045970;28;2965;-54
2022/12/10 00:22:33;;;;;;;;;;;;;;;;;;1047288;28;1636;-56
2022/12/10 00:23:04;;;;;;;;;;;;;;;;;;1046937;28;2543;-55
2022/12/10 00:23:35;;;;;;;;;;;;;;;;;;1044817;28;2187;-57
2022/12/10 00:24:05;;;;;;;;;;;;;;;;;;1046481;28;1689;-59
2022/12/10 00:24:35;;;;;;;;;;;;;;;;;;1046043;28;2193;-53
2022/12/10 00:25:06;;;;;;;;;;;;;;;;;;1045984;28;2357;-53
2022/12/10 00:25:36;;;;;;;;;;;;;;;;;;1046722;28;2469;-57
2022/12/10 00:26:07;;;;;;;;;;;;;;;;;;1044692;28;2358;-54
2022/12/10 00:26:38;;;;;;;;;;;;;;;;;;1045694;28;2339;-57
2022/12/10 00:27:08;;;;;;;;;;;;;;;;;;1047070;28;1635;-54
2022/12/10 00:27:38;;;;;;;;;;;;;;;;;;1046500;28;1784;-55
2022/12/10 00:28:09;;;;;;;;;;;;;;;;;;1046617;28;2259;-56
2022/12/10 00:28:40;;;;;;;;;;;;;;;;;;1045866;28;2539;-58
2022/12/10 00:29:11;;;;;;;;;;;;;;;;;;1044863;28;2830;-55
2022/12/10 00:29:41;;;;;;;;;;;;;;;;;;1046106;28;2036;-57
2022/12/10 00:30:12;;;;;;;;;;;;;;;;;;1047274;28;3133;-57
2022/12/10 00:30:42;;;;;;;;;;;;;;;;;;1046039;28;2166;-57
2022/12/10 00:31:14;;;;;;;;;;;;;;;;;;1046448;28;2247;-57
2022/12/10 00:31:44;;;;;;;;;;;;;;;;;;1044730;28;2389;-57
2022/12/10 00:32:14;;;;;;;;;;;;;;;;;;1044684;28;2728;-56
2022/12/10 00:32:45;;;;;;;;;;;;;;;;;;1046033;28;2308;-56
2022/12/10 00:33:15;;;;;;;;;;;;;;;;;;1048381;28;1722;-53
2022/12/10 00:33:45;;;;;;;;;;;;;;;;;;1047639;28;1709;-56
2022/12/10 00:34:16;;;;;;;;;;;;;;;;;;1045460;28;2390;-57
2022/12/10 00:34:46;;;;;;;;;;;;;;;;;;1045284;28;1759;-57
2022/12/10 00:35:16;;;;;;;;;;;;;;;;;;1046848;28;1731;-55
2022/12/10 00:35:46;;;;;;;;;;;;;;;;;;1046767;28;2949;-57
2022/12/10 00:36:18;;;;;;;;;;;;;;;;;;1048671;28;2679;-56
2022/12/10 00:36:49;;;;;;;;;;;;;;;;;;1047348;28;1753;-55
2022/12/10 00:37:19;;;;;;;;;;;;;;;;;;1045970;28;2361;-57
2022/12/10 00:37:49;;;;;;;;;;;;;;;;;;1046613;28;2151;-55
2022/12/10 00:38:19;;;;;;;;;;;;;;;;;;1044997;28;2277;-53
2022/12/10 00:38:50;;;;;;;;;;;;;;;;;;1047121;28;2015;-55
2022/12/10 00:39:21;;;;;;;;;;;;;;;;;;1046606;28;2005;-56
2022/12/10 00:39:51;;;;;;;;;;;;;;;;;;1046782;28;2946;-54
2022/12/10 00:40:21;;;;;;;;;;;;;;;;;;1047353;28;2113;-58
2022/12/10 00:40:52;;;;;;;;;;;;;;;;;;1047927;28;1684;-55
2022/12/10 00:41:22;;;;;;;;;;;;;;;;;;1043752;28;2543;-57
2022/12/10 00:41:52;;;;;;;;;;;;;;;;;;1047892;28;3497;-56
2022/12/10 00:42:22;;;;;;;;;;;;;;;;;;1046622;28;2502;-53
2022/12/10 00:42:59;;;;;;;;;;;;;;;;;;1047357;28;1692;-56
2022/12/10 00:43:29;;;;;;;;;;;;;;;;;;1046186;28;2093;-54
2022/12/10 00:43:59;;;;;;;;;;;;;;;;;;1045873;28;2406;-52
2022/12/10 00:44:30;;;;;;;;;;;;;;;;;;1046555;28;2072;-56
2022/12/10 00:45:00;;;;;;;;;;;;;;;;;;1040461;28;2530;-54
2022/12/10 00:45:30;;;;;;;;;;;;;;;;;;1041734;28;2124;-56
2022/12/10 00:46:01;;;;;;;;;;;;;;;;;;1042787;28;2177;-56
2022/12/10 00:46:31;;;;;;;;;;;;;;;;;;1040529;28;1924;-54
2022/12/10 00:47:01;;;;;;;;;;;;;;;;;;1046688;28;2452;-55
2022/12/10 00:47:31;;;;;;;;;;;;;;;;;;1046289;28;2440;-55
2022/12/10 00:48:02;;;;;;;;;;;;;;;;;;1046372;28;2137;-57
2022/12/10 00:48:32;;;;;;;;;;;;;;;;;;1048947;28;2089;-56
2022/12/10 00:49:03;;;;;;;;;;;;;;;;;;1046184;28;2214;-57
2022/12/10 00:49:33;;;;;;;;;;;;;;;;;;1046218;28;2540;-57
2022/12/10 00:50:04;;;;;;;;;;;;;;;;;;1046814;28;1941;-55
2022/12/10 00:50:34;;;;;;;;;;;;;;;;;;1045591;28;1981;-55
2022/12/10 00:51:06;;;;;;;;;;;;;;;;;;1047185;28;2665;-57
2022/12/10 00:51:36;;;;;;;;;;;;;;;;;;1047042;28;2036;-55
2022/12/10 00:52:06;;;;;;;;;;;;;;;;;;1047375;28;1671;-57
2022/12/10 00:52:36;;;;;;;;;;;;;;;;;;1044391;28;2723;-54
2022/12/10 00:53:07;;;;;;;;;;;;;;;;;;1047354;28;2019;-57
2022/12/10 00:53:38;;;;;;;;;;;;;;;;;;1047629;28;1805;-53
2022/12/10 00:54:08;;;;;;;;;;;;;;;;;;1049649;28;2029;-57
2022/12/10 00:54:38;;;;;;;;;;;;;;;;;;1045371;28;2821;-57
2022/12/10 00:55:08;;;;;;;;;;;;;;;;;;1044883;28;2412;-57
2022/12/10 00:55:39;;;;;;;;;;;;;;;;;;1048431;28;2488;-54
2022/12/10 00:56:10;;;;;;;;;;;;;;;;;;1046297;28;2130;-56
2022/12/10 00:56:40;;;;;;;;;;;;;;;;;;1043964;28;2412;-57
2022/12/10 00:57:10;;;;;;;;;;;;;;;;;;1046895;28;2542;-55
2022/12/10 00:57:40;;;;;;;;;;;;;;;;;;1047069;28;2017;-57
2022/12/10 00:58:11;;;;;;;;;;;;;;;;;;1046009;28;2034;-57
2022/12/10 00:58:56;;;;;;;;;;;;;;;;;;1047036;28;2327;-56
2022/12/10 00:59:26;;;;;;;;;;;;;;;;;;1045400;28;2971;-56
2022/12/10 00:59:56;;;;;;;;;;;;;;;;;;1048341;28;2091;-55
2022/12/10 01:00:26;;;;;;;;;;;;;;;;;;1048520;28;1928;-57
2022/12/10 01:01:07;;;;;;;;;;;;;;;;;;1046295;28;3053;-52
2022/12/10 01:01:38;;;;;;;;;;;;;;;;;;1046868;28;2193;-52
2022/12/10 01:02:09;;;;;;;;;;;;;;;;;;1047614;28;1668;-55
2022/12/10 01:03:00;;;;;;;;;;;;;;;;;;1040128;28;2449;-56
2022/12/10 01:03:30;;;;;;;;;;;;;;;;;;1041762;28;1709;-54
2022/12/10 01:04:02;;;;;;;;;;;;;;;;;;1040699;28;1681;-55
2022/12/10 01:04:32;;;;;;;;;;;;;;;;;;1042348;28;1791;-53
2022/12/10 01:05:02;;;;;;;;;;;;;;;;;;1040031;28;1689;-55
2022/12/10 01:05:33;;;;;;;;;;;;;;;;;;1039333;28;2262;-55
2022/12/10 01:06:10;;;;;;;;;;;;;;;;;;1040970;28;2961;-56
2022/12/10 01:06:42;;;;;;;;;;;;;;;;;;1042024;28;1783;-55
2022/12/10 01:07:13;;;;;;;;;;;;;;;;;;1041956;28;1906;-55
2022/12/10 01:07:43;;;;;;;;;;;;;;;;;;1040594;28;2494;-57
2022/12/10 01:08:14;;;;;;;;;;;;;;;;;;1039802;28;1949;-55
2022/12/10 01:08:44;;;;;;;;;;;;;;;;;;1039807;28;2296;-53
2022/12/10 01:09:17;;;;;;;;;;;;;;;;;;1042279;28;2067;-57
2022/12/10 01:09:47;;;;;;;;;;;;;;;;;;1041575;28;2458;-52
2022/12/10 01:10:24;;;;;;;;;;;;;;;;;;1041986;28;2125;-55
2022/12/10 01:10:54;;;;;;;;;;;;;;;;;;1039009;28;2872;-58
2022/12/10 01:11:25;;;;;;;;;;;;;;;;;;1042046;28;2182;-55
2022/12/10 01:11:57;;;;;;;;;;;;;;;;;;1042990;28;1798;-57
2022/12/10 01:12:27;;;;;;;;;;;;;;;;;;1038842;28;2457;-57
2022/12/10 01:12:57;;;;;;;;;;;;;;;;;;1041085;28;3509;-55
2022/12/10 01:13:28;;;;;;;;;;;;;;;;;;1041057;28;2048;-53
2022/12/10 01:13:58;;;;;;;;;;;;;;;;;;1040278;28;2134;-56
2022/12/10 01:14:33;;;;;;;;;;;;;;;;;;1040335;28;2069;-57
2022/12/10 01:15:03;;;;;;;;;;;;;;;;;;1040845;28;2969;-58
2022/12/10 01:15:36;;;;;;;;;;;;;;;;;;1040668;28;2259;-57
2022/12/10 01:16:08;;;;;;;;;;;;;;;;;;1041067;28;1758;-55
2022/12/10 01:16:38;;;;;;;;;;;;;;;;;;1039274;28;1664;-53
2022/12/10 01:17:08;;;;;;;;;;;;;;;;;;1040201;28;1945;-56
2022/12/10 01:17:38;;;;;;;;;;;;;;;;;;1042061;28;1786;-57
2022/12/10 01:18:09;;;;;;;;;;;;;;;;;;1039838;28;1719;-56
2022/12/10 01:18:39;;;;;;;;;;;;;;;;;;1039236;28;1409;-55
2022/12/10 01:19:10;;;;;;;;;;;;;;;;;;1040766;28;2330;-57
2022/12/10 01:19:40;;;;;;;;;;;;;;;;;;1041824;28;1838;-55
2022/12/10 01:20:11;;;;;;;;;;;;;;;;;;1040877;28;1673;-56
2022/12/10 01:20:42;;;;;;;;;;;;;;;;;;1040517;28;2420;-56
2022/12/10 01:21:14;;;;;;;;;;;;;;;;;;1041980;28;2337;-56
2022/12/10 01:21:44;;;;;;;;;;;;;;;;;;1040988;28;2995;-54
2022/12/10 01:22:15;;;;;;;;;;;;;;;;;;1042188;28;1263;-54
2022/12/10 01:22:45;;;;;;;;;;;;;;;;;;1040248;28;2395;-55
2022/12/10 01:23:15;;;;;;;;;;;;;;;;;;1042039;28;1358;-57
2022/12/10 01:23:47;;;;;;;;;;;;;;;;;;1043050;28;1735;-56
2022/12/10 01:24:17;;;;;;;;;;;;;;;;;;1042902;28;2067;-55
2022/12/10 01:24:47;;;;;;;;;;;;;;;;;;1041296;28;2571;-52
2022/12/10 01:25:17;;;;;;;;;;;;;;;;;;1041388;28;2090;-56
2022/12/10 01:25:48;;;;;;;;;;;;;;;;;;1039892;28;2498;-54
2022/12/10 01:26:19;;;;;;;;;;;;;;;;;;1040879;28;2519;-55
2022/12/10 01:26:50;;;;;;;;;;;;;;;;;;1041103;28;2482;-55
2022/12/10 01:27:20;;;;;;;;;;;;;;;;;;1043203;28;2214;-56
2022/12/10 01:27:50;;;;;;;;;;;;;;;;;;1039683;28;2342;-55
2022/12/10 01:28:20;;;;;;;;;;;;;;;;;;1042391;28;3096;-53
2022/12/10 01:28:51;;;;;;;;;;;;;;;;;;1039812;28;1765;-54
2022/12/10 01:29:21;;;;;;;;;;;;;;;;;;1042385;28;2426;-55
2022/12/10 01:29:52;;;;;;;;;;;;;;;;;;1042737;28;1789;-57
2022/12/10 01:30:22;;;;;;;;;;;;;;;;;;1041518;28;2555;-57
2022/12/10 01:31:00;;;;;;;;;;;;;;;;;;1040080;28;3784;-53
2022/12/10 01:31:32;;;;;;;;;;;;;;;;;;1041540;28;3355;-55
2022/12/10 01:32:02;;;;;;;;;;;;;;;;;;1040143;28;2425;-56
2022/12/10 01:32:32;;;;;;;;;;;;;;;;;;1041341;28;1707;-58
2022/12/10 01:33:03;;;;;;;;;;;;;;;;;;1043162;28;2112;-55
2022/12/10 01:33:33;;;;;;;;;;;;;;;;;;1041929;28;2121;-57
2022/12/10 01:34:05;;;;;;;;;;;;;;;;;;1041777;28;2062;-54
2022/12/10 01:34:35;;;;;;;;;;;;;;;;;;1040708;28;2143;-57
2022/12/10 01:35:06;;;;;;;;;;;;;;;;;;1041054;28;3037;-54
2022/12/10 01:35:37;;;;;;;;;;;;;;;;;;1041057;28;2367;-57
2022/12/10 01:36:08;;;;;;;;;;;;;;;;;;1041141;28;2084;-54
2022/12/10 01:36:41;;;;;;;;;;;;;;;;;;1041280;28;2121;-54
2022/12/10 01:37:11;;;;;;;;;;;;;;;;;;1040819;28;2669;-56
2022/12/10 01:37:41;;;;;;;;;;;;;;;;;;1039213;28;2314;-56
2022/12/10 01:38:12;;;;;;;;;;;;;;;;;;1040595;28;2040;-55
2022/12/10 01:38:42;;;;;;;;;;;;;;;;;;1042951;28;1394;-55
2022/12/10 01:39:13;;;;;;;;;;;;;;;;;;1040474;28;1896;-55
2022/12/10 01:39:44;;;;;;;;;;;;;;;;;;1042547;28;1719;-56
2022/12/10 01:40:14;;;;;;;;;;;;;;;;;;1043660;28;1713;-55
2022/12/10 01:40:44;;;;;;;;;;;;;;;;;;1039730;28;1774;-54
2022/12/10 01:41:31;;;;;;;;;;;;;;;;;;1040015;28;2631;-56
2022/12/10 01:42:01;;;;;;;;;;;;;;;;;;1037941;28;1699;-55
2022/12/10 01:42:32;;;;;;;;;;;;;;;;;;1040126;28;2567;-57
2022/12/10 01:43:02;;;;;;;;;;;;;;;;;;1041218;28;1932;-57
2022/12/10 01:43:53;;;;;;;;;;;;;;;;;;1040818;28;2080;-57
2022/12/10 01:44:23;;;;;;;;;;;;;;;;;;1042660;28;1424;-55
2022/12/10 01:44:57;;;;;;;;;;;;;;;;;;1038989;28;2228;-57
2022/12/10 01:45:27;;;;;;;;;;;;;;;;;;1042661;28;1994;-57
2022/12/10 01:45:57;;;;;;;;;;;;;;;;;;1039688;28;2525;-54
2022/12/10 01:46:29;;;;;;;;;;;;;;;;;;1041660;28;2730;-56
2022/12/10 01:47:03;;;;;;;;;;;;;;;;;;1038542;28;2333;-57
2022/12/10 01:47:33;;;;;;;;;;;;;;;;;;1039424;28;2041;-56
2022/12/10 01:48:03;;;;;;;;;;;;;;;;;;1041137;28;1880;-56
2022/12/10 01:48:33;;;;;;;;;;;;;;;;;;1039602;28;1687;-55
2022/12/10 01:49:05;;;;;;;;;;;;;;;;;;1040600;28;2805;-55
2022/12/10 01:49:37;;;;;;;;;;;;;;;;;;1039115;28;2378;-53
2022/12/10 01:50:08;;;;;;;;;;;;;;;;;;1041961;28;1801;-56
2022/12/10 01:50:38;;;;;;;;;;;;;;;;;;1039620;28;1910;-56
2022/12/10 01:51:10;;;;;;;;;;;;;;;;;;1040148;28;2399;-54
2022/12/10 01:51:41;;;;;;;;;;;;;;;;;;1042517;28;1744;-56
2022/12/10 01:52:12;;;;;;;;;;;;;;;;;;1041123;28;2390;-56
2022/12/10 01:52:42;;;;;;;;;;;;;;;;;;1039811;28;2530;-52
2022/12/10 01:53:13;;;;;;;;;;;;;;;;;;1040334;28;2109;-55
2022/12/10 01:53:44;;;;;;;;;;;;;;;;;;1040990;28;2155;-54
2022/12/10 01:54:16;;;;;;;;;;;;;;;;;;1040787;28;2926;-57
2022/12/10 01:54:47;;;;;;;;;;;;;;;;;;1040869;28;2044;-56
2022/12/10 01:55:38;;;;;;;;;;;;;;;;;;1040648;28;2451;-55
2022/12/10 01:56:10;;;;;;;;;;;;;;;;;;1039737;28;2141;-55
2022/12/10 01:56:44;;;;;;;;;;;;;;;;;;1041923;28;2109;-55
2022/12/10 01:57:18;;;;;;;;;;;;;;;;;;1040317;28;2034;-57
2022/12/10 01:57:49;;;;;;;;;;;;;;;;;;1039978;28;2050;-58
2022/12/10 01:58:19;;;;;;;;;;;;;;;;;;1039328;28;2076;-54
2022/12/10 01:58:56;;;;;;;;;;;;;;;;;;1041446;28;2086;-55
2022/12/10 01:59:27;;;;;;;;;;;;;;;;;;1040182;28;2566;-56
2022/12/10 02:00:00;;;;;;;;;;;;;;;;;;1039763;28;2399;-56
2022/12/10 02:00:32;;;;;;;;;;;;;;;;;;1040578;28;2138;-55
2022/12/10 02:01:14;;;;;;;;;;;;;;;;;;1040024;28;2058;-55
2022/12/10 02:01:49;;;;;;;;;;;;;;;;;;1039839;28;2722;-56
2022/12/10 02:02:58;;;;;;;;;;;;;;;;;;1042866;28;2528;-57
2022/12/10 02:03:43;;;;;;;;;;;;;;;;;;1049512;28;2156;-55
2022/12/10 02:04:25;;;;;;;;;;;;;;;;;;1049327;28;2011;-56
2022/12/10 02:04:58;;;;;;;;;;;;;;;;;;1051182;28;2210;-57
2022/12/10 02:05:43;;;;;;;;;;;;;;;;;;1052963;28;2247;-55
2022/12/10 02:06:21;;;;;;;;;;;;;;;;;;1049059;28;2008;-56
2022/12/10 02:06:59;;;;;;;;;;;;;;;;;;1049940;28;2178;-55
2022/12/10 02:07:35;;;;;;;;;;;;;;;;;;1048972;28;2417;-54
2022/12/10 02:08:05;;;;;;;;;;;;;;;;;;1049827;28;2104;-56
2022/12/10 02:08:40;;;;;;;;;;;;;;;;;;1050614;28;2075;-55
2022/12/10 02:09:23;;;;;;;;;;;;;;;;;;1051408;28;2446;-57
2022/12/10 02:10:05;;;;;;;;;;;;;;;;;;1048239;28;2948;-57
2022/12/10 02:10:35;;;;;;;;;;;;;;;;;;1050037;28;2111;-56
2022/12/10 02:11:17;;;;;;;;;;;;;;;;;;1046030;28;1927;-53
2022/12/10 02:12:07;;;;;;;;;;;;;;;;;;1047014;28;2038;-56
2022/12/10 02:12:41;;;;;;;;;;;;;;;;;;1044784;28;2554;-56
2022/12/10 02:13:18;;;;;;;;;;;;;;;;;;1049898;28;2469;-52
2022/12/10 02:13:55;;;;;;;;;;;;;;;;;;1049612;28;1997;-57
2022/12/10 02:14:34;;;;;;;;;;;;;;;;;;1049596;28;2249;-57
2022/12/10 02:15:08;;;;;;;;;;;;;;;;;;1050103;28;2107;-57
2022/12/10 02:15:44;;;;;;;;;;;;;;;;;;1049389;28;2292;-57
2022/12/10 02:16:17;;;;;;;;;;;;;;;;;;1049904;28;2327;-56
2022/12/10 02:16:55;;;;;;;;;;;;;;;;;;1048709;28;2342;-55
2022/12/10 02:17:25;;;;;;;;;;;;;;;;;;1050092;28;2174;-55
2022/12/10 02:17:57;;;;;;;;;;;;;;;;;;1048740;28;2367;-54
2022/12/10 02:18:39;;;;;;;;;;;;;;;;;;1050124;28;2180;-57
2022/12/10 02:19:29;;;;;;;;;;;;;;;;;;1050768;28;2130;-57
2022/12/10 02:20:06;;;;;;;;;;;;;;;;;;1048874;28;2413;-56
2022/12/10 02:20:47;;;;;;;;;;;;;;;;;;1051756;28;2286;-55
2022/12/10 02:21:20;;;;;;;;;;;;;;;;;;1050360;28;2044;-54
2022/12/10 02:21:52;;;;;;;;;;;;;;;;;;1051201;28;2115;-56
2022/12/10 02:22:23;;;;;;;;;;;;;;;;;;1049716;28;2575;-55
2022/12/10 02:22:56;;;;;;;;;;;;;;;;;;1050273;28;2306;-56
2022/12/10 02:23:27;;;;;;;;;;;;;;;;;;1051851;28;1642;-54
2022/12/10 02:24:00;;;;;;;;;;;;;;;;;;1052436;28;2365;-55
2022/12/10 02:24:33;;;;;;;;;;;;;;;;;;1051093;28;2387;-55
2022/12/10 02:25:06;;;;;;;;;;;;;;;;;;1050718;28;1700;-54
2022/12/10 02:25:45;;;;;;;;;;;;;;;;;;1051215;28;1693;-57
2022/12/10 02:26:29;;;;;;;;;;;;;;;;;;1048515;28;2204;-57
2022/12/10 02:27:18;;;;;;;;;;;;;;;;;;1051491;28;1648;-57
2022/12/10 02:27:54;;;;;;;;;;;;;;;;;;1048494;28;1649;-57
2022/12/10 02:28:39;;;;;;;;;;;;;;;;;;1052059;28;2850;-52
2022/12/10 02:29:13;;;;;;;;;;;;;;;;;;1048835;28;2083;-54
2022/12/10 02:29:44;;;;;;;;;;;;;;;;;;1050679;28;1966;-58
2022/12/10 02:30:14;;;;;;;;;;;;;;;;;;1049719;28;2925;-53
2022/12/10 02:30:44;;;;;;;;;;;;;;;;;;1050519;28;2172;-57
2022/12/10 02:31:17;;;;;;;;;;;;;;;;;;1052896;28;1617;-57
2022/12/10 02:31:50;;;;;;;;;;;;;;;;;;1050802;28;1655;-56
2022/12/10 02:32:25;;;;;;;;;;;;;;;;;;1046951;28;1644;-55
2022/12/10 02:32:57;;;;;;;;;;;;;;;;;;1045169;28;2700;-54
2022/12/10 02:33:28;;;;;;;;;;;;;;;;;;1040990;28;1637;-56
2022/12/10 02:34:00;;;;;;;;;;;;;;;;;;1043387;28;2014;-56
2022/12/10 02:34:35;;;;;;;;;;;;;;;;;;1045761;28;2381;-58
2022/12/10 02:35:09;;;;;;;;;;;;;;;;;;1047001;28;1722;-53
2022/12/10 02:35:40;;;;;;;;;;;;;;;;;;1053723;28;2476;-56
2022/12/10 02:36:13;;;;;;;;;;;;;;;;;;1052001;28;2483;-55
2022/12/10 02:36:45;;;;;;;;;;;;;;;;;;1051999;28;2455;-54
2022/12/10 02:37:23;;;;;;;;;;;;;;;;;;1050889;28;2067;-57
2022/12/10 02:37:58;;;;;;;;;;;;;;;;;;1053621;28;2455;-51
2022/12/10 02:38:30;;;;;;;;;;;;;;;;;;1050297;28;2012;-54
2022/12/10 02:39:01;;;;;;;;;;;;;;;;;;1051832;28;1605;-55
2022/12/10 02:39:39;;;;;;;;;;;;;;;;;;1052119;28;1975;-56
2022/12/10 02:40:12;;;;;;;;;;;;;;;;;;1050488;28;2315;-55
2022/12/10 02:40:46;;;;;;;;;;;;;;;;;;1050646;28;2530;-54
2022/12/10 02:41:25;;;;;;;;;;;;;;;;;;1049554;28;1560;-57
2022/12/10 02:41:56;;;;;;;;;;;;;;;;;;1048686;28;2171;-55
2022/12/10 02:42:29;;;;;;;;;;;;;;;;;;1048504;28;2626;-54
2022/12/10 02:42:59;;;;;;;;;;;;;;;;;;1048513;28;2646;-56
2022/12/10 02:43:30;;;;;;;;;;;;;;;;;;1050419;28;1420;-57
2022/12/10 02:44:08;;;;;;;;;;;;;;;;;;1050724;28;2054;-57
2022/12/10 02:44:39;;;;;;;;;;;;;;;;;;1048050;28;2405;-56
2022/12/10 02:45:10;;;;;;;;;;;;;;;;;;1044848;28;2036;-57
2022/12/10 02:45:41;;;;;;;;;;;;;;;;;;1046356;28;2107;-58
2022/12/10 02:46:12;;;;;;;;;;;;;;;;;;1047456;28;2041;-57
2022/12/10 02:46:43;;;;;;;;;;;;;;;;;;1048230;28;2847;-56
2022/12/10 02:47:20;;;;;;;;;;;;;;;;;;1052052;28;2151;-54
2022/12/10 02:47:53;;;;;;;;;;;;;;;;;;1049821;28;2447;-56
2022/12/10 02:48:23;;;;;;;;;;;;;;;;;;1050291;28;2281;-57
2022/12/10 02:48:54;;;;;;;;;;;;;;;;;;1050076;28;2120;-54
2022/12/10 02:49:25;;;;;;;;;;;;;;;;;;1050605;28;2075;-55
2022/12/10 02:49:56;;;;;;;;;;;;;;;;;;1050954;28;2282;-55
2022/12/10 02:50:26;;;;;;;;;;;;;;;;;;1050414;28;2145;-54
2022/12/10 02:50:56;;;;;;;;;;;;;;;;;;1052149;28;2086;-57
2022/12/10 02:51:27;;;;;;;;;;;;;;;;;;1049663;28;2916;-58
2022/12/10 02:51:57;;;;;;;;;;;;;;;;;;1050959;28;2118;-57
2022/12/10 02:52:27;;;;;;;;;;;;;;;;;;1052627;28;2344;-53
2022/12/10 02:52:58;;;;;;;;;;;;;;;;;;1048827;28;2390;-55
2022/12/10 02:53:28;;;;;;;;;;;;;;;;;;1048915;28;2238;-55
2022/12/10 02:53:59;;;;;;;;;;;;;;;;;;1050955;28;2106;-57
2022/12/10 02:54:37;;;;;;;;;;;;;;;;;;1051570;28;1691;-56
2022/12/10 02:55:11;;;;;;;;;;;;;;;;;;1050322;28;2688;-55
2022/12/10 02:55:57;;;;;;;;;;;;;;;;;;1049688;28;2134;-55
2022/12/10 02:56:32;;;;;;;;;;;;;;;;;;1050157;28;1707;-57
2022/12/10 02:57:07;;;;;;;;;;;;;;;;;;1051073;28;1621;-55
2022/12/10 02:57:40;;;;;;;;;;;;;;;;;;1050287;28;2130;-55
2022/12/10 02:58:36;;;;;;;;;;;;;;;;;;1050760;28;2106;-57
2022/12/10 02:59:15;;;;;;;;;;;;;;;;;;1032765;28;1376;-57
2022/12/10 02:59:46;;;;;;;;;;;;;;;;;;1039359;28;2219;-55
2022/12/10 03:00:18;;;;;;;;;;;;;;;;;;1044978;28;2800;-54
2022/12/10 03:00:53;;;;;;;;;;;;;;;;;;1045331;28;1702;-58
2022/12/10 03:01:38;;;;;;;;;;;;;;;;;;1043413;28;2107;-56
2022/12/10 03:02:14;;;;;;;;;;;;;;;;;;1047913;28;2102;-55
2022/12/10 03:03:05;;;;;;;;;;;;;;;;;;1047896;28;2718;-57
2022/12/10 03:03:45;;;;;;;;;;;;;;;;;;1048482;28;2105;-57
2022/12/10 03:04:18;;;;;;;;;;;;;;;;;;1052576;28;1866;-55
2022/12/10 03:04:58;;;;;;;;;;;;;;;;;;1049496;28;2586;-57
2022/12/10 03:05:42;;;;;;;;;;;;;;;;;;1049116;28;2702;-55
2022/12/10 03:06:17;;;;;;;;;;;;;;;;;;1048381;28;1849;-56
2022/12/10 03:06:58;;;;;;;;;;;;;;;;;;1048327;28;2383;-55
2022/12/10 03:07:34;;;;;;;;;;;;;;;;;;1049385;28;2451;-56
2022/12/10 03:08:07;;;;;;;;;;;;;;;;;;1048531;28;2346;-55
2022/12/10 03:08:56;;;;;;;;;;;;;;;;;;1052726;28;1842;-57
2022/12/10 03:09:38;;;;;;;;;;;;;;;;;;1050242;28;1783;-57
2022/12/10 03:10:20;;;;;;;;;;;;;;;;;;1049181;28;2489;-56
2022/12/10 03:10:54;;;;;;;;;;;;;;;;;;1050056;28;2368;-57
2022/12/10 03:11:25;;;;;;;;;;;;;;;;;;1049888;28;2990;-54
2022/12/10 03:11:58;;;;;;;;;;;;;;;;;;1052477;28;1752;-57
2022/12/10 03:12:31;;;;;;;;;;;;;;;;;;1049045;28;2496;-53
2022/12/10 03:13:03;;;;;;;;;;;;;;;;;;1050956;28;2843;-57
2022/12/10 03:13:37;;;;;;;;;;;;;;;;;;1052040;28;1809;-57
2022/12/10 03:14:14;;;;;;;;;;;;;;;;;;1051815;28;2295;-55
2022/12/10 03:14:45;;;;;;;;;;;;;;;;;;1053205;28;2064;-57
2022/12/10 03:15:15;;;;;;;;;;;;;;;;;;1050118;28;2301;-57
2022/12/10 03:15:47;;;;;;;;;;;;;;;;;;1052429;28;1657;-54
2022/12/10 03:16:18;;;;;;;;;;;;;;;;;;1053129;28;2450;-56
2022/12/10 03:16:52;;;;;;;;;;;;;;;;;;1053000;28;1749;-55
2022/12/10 03:17:23;;;;;;;;;;;;;;;;;;1053039;28;1601;-55
2022/12/10 03:17:55;;;;;;;;;;;;;;;;;;1047539;28;1983;-56
2022/12/10 03:18:25;;;;;;;;;;;;;;;;;;1045524;28;2321;-56
2022/12/10 03:18:57;;;;;;;;;;;;;;;;;;1046181;28;2240;-57
2022/12/10 03:19:48;;;;;;;;;;;;;;;;;;1046215;28;2575;-57
2022/12/10 03:20:18;;;;;;;;;;;;;;;;;;1049430;28;1783;-57
2022/12/10 03:20:50;;;;;;;;;;;;;;;;;;1052159;28;1724;-55
2022/12/10 03:21:22;;;;;;;;;;;;;;;;;;1051714;28;2273;-55
2022/12/10 03:21:52;;;;;;;;;;;;;;;;;;1049718;28;2406;-55
2022/12/10 03:22:23;;;;;;;;;;;;;;;;;;1050442;28;2488;-53
2022/12/10 03:22:53;;;;;;;;;;;;;;;;;;1051666;28;1741;-55
2022/12/10 03:23:23;;;;;;;;;;;;;;;;;;1051356;28;2393;-55
2022/12/10 03:23:54;;;;;;;;;;;;;;;;;;1051974;28;1886;-53
2022/12/10 03:24:24;;;;;;;;;;;;;;;;;;1053183;28;1679;-56
2022/12/10 03:24:54;;;;;;;;;;;;;;;;;;1051767;28;1650;-57
2022/12/10 03:25:27;;;;;;;;;;;;;;;;;;1049850;28;2317;-53
2022/12/10 03:25:58;;;;;;;;;;;;;;;;;;1050376;28;1923;-57
2022/12/10 03:26:28;;;;;;;;;;;;;;;;;;1052356;28;1715;-53
2022/12/10 03:26:59;;;;;;;;;;;;;;;;;;1051822;28;1809;-56
2022/12/10 03:27:29;;;;;;;;;;;;;;;;;;1053616;28;2336;-56
2022/12/10 03:28:00;;;;;;;;;;;;;;;;;;1052133;28;2063;-53
2022/12/10 03:28:34;;;;;;;;;;;;;;;;;;1049707;28;2297;-54
2022/12/10 03:29:09;;;;;;;;;;;;;;;;;;1051464;28;1723;-58
2022/12/10 03:29:44;;;;;;;;;;;;;;;;;;1048358;28;2101;-55
2022/12/10 03:30:14;;;;;;;;;;;;;;;;;;1045573;28;2349;-55
2022/12/10 03:30:45;;;;;;;;;;;;;;;;;;1047395;28;1936;-56
2022/12/10 03:31:17;;;;;;;;;;;;;;;;;;1046545;28;1847;-55
2022/12/10 03:31:48;;;;;;;;;;;;;;;;;;1051527;28;2235;-54
2022/12/10 03:32:20;;;;;;;;;;;;;;;;;;1053400;28;1741;-57
2022/12/10 03:32:51;;;;;;;;;;;;;;;;;;1050713;28;2064;-54
2022/12/10 03:33:21;;;;;;;;;;;;;;;;;;1050723;28;2395;-55
2022/12/10 03:33:52;;;;;;;;;;;;;;;;;;1051287;28;2274;-53
2022/12/10 03:34:22;;;;;;;;;;;;;;;;;;1051226;28;2454;-55
2022/12/10 03:34:53;;;;;;;;;;;;;;;;;;1051158;28;2079;-58
2022/12/10 03:35:24;;;;;;;;;;;;;;;;;;1050328;28;2138;-54
2022/12/10 03:35:55;;;;;;;;;;;;;;;;;;1050195;28;1840;-57
2022/12/10 03:36:26;;;;;;;;;;;;;;;;;;1050999;28;2202;-55
2022/12/10 03:36:57;;;;;;;;;;;;;;;;;;1050640;28;2521;-53
2022/12/10 03:37:28;;;;;;;;;;;;;;;;;;1050699;28;2392;-57
2022/12/10 03:37:58;;;;;;;;;;;;;;;;;;1049652;28;3831;-54
2022/12/10 03:38:29;;;;;;;;;;;;;;;;;;1050335;28;2654;-57
2022/12/10 03:39:00;;;;;;;;;;;;;;;;;;1051737;28;2030;-56
2022/12/10 03:39:30;;;;;;;;;;;;;;;;;;1051898;28;2341;-54
2022/12/10 03:40:01;;;;;;;;;;;;;;;;;;1050605;28;2378;-57
2022/12/10 03:40:32;;;;;;;;;;;;;;;;;;1052770;28;2347;-55
2022/12/10 03:41:02;;;;;;;;;;;;;;;;;;1046492;28;2464;-57
2022/12/10 03:41:32;;;;;;;;;;;;;;;;;;1045824;28;1636;-58
2022/12/10 03:42:03;;;;;;;;;;;;;;;;;;1047676;28;1722;-56
2022/12/10 03:42:37;;;;;;;;;;;;;;;;;;1045741;28;2639;-53
2022/12/10 03:43:07;;;;;;;;;;;;;;;;;;1051059;28;2224;-57
2022/12/10 03:43:53;;;;;;;;;;;;;;;;;;1053067;28;1950;-56
2022/12/10 03:44:28;;;;;;;;;;;;;;;;;;1049719;28;2961;-55
2022/12/10 03:44:58;;;;;;;;;;;;;;;;;;1054986;28;1638;-56
2022/12/10 03:45:28;;;;;;;;;;;;;;;;;;1050726;28;2299;-57
2022/12/10 03:45:59;;;;;;;;;;;;;;;;;;1051933;28;2776;-57
2022/12/10 03:46:30;;;;;;;;;;;;;;;;;;1051302;28;2718;-54
2022/12/10 03:47:01;;;;;;;;;;;;;;;;;;1051579;28;2552;-57
2022/12/10 03:47:38;;;;;;;;;;;;;;;;;;1052046;28;2484;-54
2022/12/10 03:48:08;;;;;;;;;;;;;;;;;;1049641;28;2303;-55